sensor_id;sensor_type;location;lat;lon;timestamp;pressure;altitude;pressure_sealevel;temperature;humidity
5679;BME280;2862;52.560;13.566;2024-01-27T00:09:23;101596.16;;;5.30;96.15
5679;BME280;2862;52.560;13.566;2024-01-27T00:19:27;101600.97;;;5.22;94.74
5679;BME280;2862;52.560;13.566;2024-01-27T00:29:31;101615.06;;;5.23;94.72
5679;BME280;2862;52.560;13.566;2024-01-27T00:39:35;101620.72;;;5.15;94.38
5679;BME280;2862;52.560;13.566;2024-01-27T00:49:38;101626.47;;;5.06;93.96
5679;BME280;2862;52.560;13.566;2024-01-27T00:59:43;101624.66;;;5.06;92.59
5679;BME280;2862;52.560;13.566;2024-01-27T01:09:46;101636.59;;;4.96;92.90
5679;BME280;2862;52.560;13.566;2024-01-27T01:19:50;101659.03;;;5.08;92.09
5679;BME280;2862;52.560;13.566;2024-01-27T01:29:54;101653.91;;;5.24;91.37
5679;BME280;2862;52.560;13.566;2024-01-27T01:39:58;101663.78;;;5.20;90.47
5679;BME280;2862;52.560;13.566;2024-01-27T01:50:02;101667.78;;;5.10;91.12
5679;BME280;2862;52.560;13.566;2024-01-27T02:00:08;101681.66;;;4.96;91.50
5679;BME280;2862;52.560;13.566;2024-01-27T02:10:16;101697.44;;;4.99;91.13
5679;BME280;2862;52.560;13.566;2024-01-27T02:20:20;101701.50;;;4.88;93.16
5679;BME280;2862;52.560;13.566;2024-01-27T02:30:25;101711.00;;;4.92;94.02
5679;BME280;2862;52.560;13.566;2024-01-27T02:40:28;101712.31;;;4.82;94.26
5679;BME280;2862;52.560;13.566;2024-01-27T02:50:33;101721.88;;;4.86;95.09
5679;BME280;2862;52.560;13.566;2024-01-27T03:00:36;101727.09;;;4.87;95.96
5679;BME280;2862;52.560;13.566;2024-01-27T03:10:41;101737.47;;;4.93;96.34
5679;BME280;2862;52.560;13.566;2024-01-27T03:20:43;101739.22;;;4.93;97.62
5679;BME280;2862;52.560;13.566;2024-01-27T03:30:48;101742.28;;;5.04;96.43
5679;BME280;2862;52.560;13.566;2024-01-27T03:40:51;101751.88;;;4.86;97.06
5679;BME280;2862;52.560;13.566;2024-01-27T03:50:56;101769.19;;;4.95;96.58
5679;BME280;2862;52.560;13.566;2024-01-27T04:00:59;101776.66;;;4.85;97.22
5679;BME280;2862;52.560;13.566;2024-01-27T04:11:04;101794.81;;;4.74;98.04
5679;BME280;2862;52.560;13.566;2024-01-27T04:21:07;101805.78;;;4.65;98.99
5679;BME280;2862;52.560;13.566;2024-01-27T04:31:12;101839.56;;;4.60;99.73
5679;BME280;2862;52.560;13.566;2024-01-27T04:41:15;101859.50;;;4.68;100.00
5679;BME280;2862;52.560;13.566;2024-01-27T04:51:19;101864.59;;;4.51;100.00
5679;BME280;2862;52.560;13.566;2024-01-27T05:01:23;101871.25;;;4.61;100.00
5679;BME280;2862;52.560;13.566;2024-01-27T05:11:29;101888.38;;;4.52;100.00
5679;BME280;2862;52.560;13.566;2024-01-27T05:21:32;101907.81;;;4.53;100.00
5679;BME280;2862;52.560;13.566;2024-01-27T05:31:37;101904.31;;;4.51;100.00
5679;BME280;2862;52.560;13.566;2024-01-27T05:41:40;101911.41;;;4.50;100.00
5679;BME280;2862;52.560;13.566;2024-01-27T05:51:45;101914.84;;;4.52;100.00
5679;BME280;2862;52.560;13.566;2024-01-27T06:01:48;101928.38;;;4.68;100.00
5679;BME280;2862;52.560;13.566;2024-01-27T06:11:53;101953.41;;;4.83;100.00
5679;BME280;2862;52.560;13.566;2024-01-27T06:21:56;101960.44;;;4.84;100.00
5679;BME280;2862;52.560;13.566;2024-01-27T06:32:05;101976.34;;;5.06;100.00
5679;BME280;2862;52.560;13.566;2024-01-27T06:42:10;101988.78;;;5.04;100.00
5679;BME280;2862;52.560;13.566;2024-01-27T06:52:14;102019.38;;;5.13;100.00
5679;BME280;2862;52.560;13.566;2024-01-27T07:02:18;102026.09;;;5.21;100.00
5679;BME280;2862;52.560;13.566;2024-01-27T07:12:23;102042.75;;;5.25;100.00
5679;BME280;2862;52.560;13.566;2024-01-27T07:22:28;102062.09;;;5.27;100.00
5679;BME280;2862;52.560;13.566;2024-01-27T07:32:32;102078.00;;;5.27;100.00
5679;BME280;2862;52.560;13.566;2024-01-27T07:42:36;102095.97;;;5.42;100.00
5679;BME280;2862;52.560;13.566;2024-01-27T07:52:40;102085.81;;;5.53;100.00
5679;BME280;2862;52.560;13.566;2024-01-27T08:02:43;102121.41;;;5.70;100.00
5679;BME280;2862;52.560;13.566;2024-01-27T08:12:48;102112.44;;;5.72;100.00
5679;BME280;2862;52.560;13.566;2024-01-27T08:22:51;102123.63;;;6.63;100.00
5679;BME280;2862;52.560;13.566;2024-01-27T08:32:55;102133.59;;;6.58;97.32
5679;BME280;2862;52.560;13.566;2024-01-27T08:42:58;102147.78;;;6.38;95.41
5679;BME280;2862;52.560;13.566;2024-01-27T08:53:04;102154.94;;;6.57;95.28
5679;BME280;2862;52.560;13.566;2024-01-27T09:03:09;102149.34;;;6.63;95.02
5679;BME280;2862;52.560;13.566;2024-01-27T09:13:15;102163.63;;;6.81;93.52
5679;BME280;2862;52.560;13.566;2024-01-27T09:23:18;102162.38;;;6.89;94.06
5679;BME280;2862;52.560;13.566;2024-01-27T09:33:23;102174.53;;;6.75;93.83
5679;BME280;2862;52.560;13.566;2024-01-27T09:43:30;102184.50;;;6.90;92.83
5679;BME280;2862;52.560;13.566;2024-01-27T09:53:38;102202.75;;;6.98;92.46
5679;BME280;2862;52.560;13.566;2024-01-27T10:03:41;102197.09;;;7.05;96.62
5679;BME280;2862;52.560;13.566;2024-01-27T10:13:53;102206.47;;;7.14;91.11
5679;BME280;2862;52.560;13.566;2024-01-27T10:24:01;102225.09;;;7.14;90.70
5679;BME280;2862;52.560;13.566;2024-01-27T10:34:12;102224.81;;;7.39;89.24
5679;BME280;2862;52.560;13.566;2024-01-27T10:44:18;102228.91;;;7.27;87.14
5679;BME280;2862;52.560;13.566;2024-01-27T10:54:28;102229.06;;;7.43;87.61
5679;BME280;2862;52.560;13.566;2024-01-27T11:04:32;102247.50;;;7.66;85.41
5679;BME280;2862;52.560;13.566;2024-01-27T11:14:39;102246.53;;;7.69;86.24
5679;BME280;2862;52.560;13.566;2024-01-27T11:24:43;102249.97;;;7.71;86.34
5679;BME280;2862;52.560;13.566;2024-01-27T11:34:47;102256.16;;;7.71;85.97
5679;BME280;2862;52.560;13.566;2024-01-27T11:44:50;102273.91;;;7.71;85.42
5679;BME280;2862;52.560;13.566;2024-01-27T11:54:55;102282.00;;;7.69;85.50
5679;BME280;2862;52.560;13.566;2024-01-27T12:04:59;102290.94;;;7.48;84.75
5679;BME280;2862;52.560;13.566;2024-01-27T12:15:04;102289.66;;;7.57;84.85
5679;BME280;2862;52.560;13.566;2024-01-27T12:25:11;102310.63;;;7.83;86.84
5679;BME280;2862;52.560;13.566;2024-01-27T12:35:16;102323.59;;;8.10;92.24
5679;BME280;2862;52.560;13.566;2024-01-27T12:45:22;102323.00;;;7.65;88.90
5679;BME280;2862;52.560;13.566;2024-01-27T12:55:29;102345.19;;;7.45;90.23
5679;BME280;2862;52.560;13.566;2024-01-27T13:05:32;102355.69;;;7.49;90.14
5679;BME280;2862;52.560;13.566;2024-01-27T13:15:38;102341.03;;;7.59;88.02
5679;BME280;2862;52.560;13.566;2024-01-27T13:25:41;102348.56;;;7.88;85.69
5679;BME280;2862;52.560;13.566;2024-01-27T13:35:48;102349.25;;;7.73;85.58
5679;BME280;2862;52.560;13.566;2024-01-27T13:45:53;102359.34;;;7.46;86.94
5679;BME280;2862;52.560;13.566;2024-01-27T13:55:58;102363.53;;;7.52;88.02
5679;BME280;2862;52.560;13.566;2024-01-27T14:06:06;102364.47;;;7.30;89.21
5679;BME280;2862;52.560;13.566;2024-01-27T14:16:43;102364.72;;;7.44;89.73
5679;BME280;2862;52.560;13.566;2024-01-27T14:26:48;102378.28;;;7.38;90.32
5679;BME280;2862;52.560;13.566;2024-01-27T14:36:53;102374.56;;;7.22;90.99
5679;BME280;2862;52.560;13.566;2024-01-27T14:46:56;102404.16;;;7.14;91.50
5679;BME280;2862;52.560;13.566;2024-01-27T14:57:03;102412.28;;;7.11;92.60
5679;BME280;2862;52.560;13.566;2024-01-27T15:07:10;102422.25;;;7.06;93.44
5679;BME280;2862;52.560;13.566;2024-01-27T15:17:19;102428.06;;;6.94;94.38
5679;BME280;2862;52.560;13.566;2024-01-27T15:27:27;102434.25;;;6.73;95.79
5679;BME280;2862;52.560;13.566;2024-01-27T15:37:35;102445.78;;;6.50;96.82
5679;BME280;2862;52.560;13.566;2024-01-27T15:47:39;102449.00;;;6.58;97.21
5679;BME280;2862;52.560;13.566;2024-01-27T15:57:45;102449.16;;;6.77;96.62
5679;BME280;2862;52.560;13.566;2024-01-27T16:07:49;102467.31;;;6.87;95.48
5679;BME280;2862;52.560;13.566;2024-01-27T16:17:53;102475.19;;;6.90;94.55
5679;BME280;2862;52.560;13.566;2024-01-27T16:27:56;102487.53;;;6.91;93.97
5679;BME280;2862;52.560;13.566;2024-01-27T16:38:01;102486.25;;;6.56;95.40
5679;BME280;2862;52.560;13.566;2024-01-27T16:48:07;102489.56;;;6.39;96.17
5679;BME280;2862;52.560;13.566;2024-01-27T16:58:12;102495.81;;;6.13;97.40
5679;BME280;2862;52.560;13.566;2024-01-27T17:08:15;102484.91;;;5.98;97.96
5679;BME280;2862;52.560;13.566;2024-01-27T17:18:19;102476.78;;;5.76;99.42
5679;BME280;2862;52.560;13.566;2024-01-27T17:28:22;102489.06;;;5.78;99.11
5679;BME280;2862;52.560;13.566;2024-01-27T17:38:27;102499.03;;;5.72;98.66
5679;BME280;2862;52.560;13.566;2024-01-27T17:48:30;102506.50;;;5.60;99.13
5679;BME280;2862;52.560;13.566;2024-01-27T17:58:34;102520.75;;;5.58;99.63
5679;BME280;2862;52.560;13.566;2024-01-27T18:08:38;102523.84;;;5.44;99.60
5679;BME280;2862;52.560;13.566;2024-01-27T18:18:42;102516.75;;;5.45;99.00
5679;BME280;2862;52.560;13.566;2024-01-27T18:28:45;102531.19;;;5.36;98.96
5679;BME280;2862;52.560;13.566;2024-01-27T18:38:50;102540.88;;;5.37;98.42
5679;BME280;2862;52.560;13.566;2024-01-27T18:48:53;102560.13;;;5.44;98.09
5679;BME280;2862;52.560;13.566;2024-01-27T18:58:58;102559.78;;;5.26;99.55
5679;BME280;2862;52.560;13.566;2024-01-27T19:09:01;102573.25;;;5.20;100.00
5679;BME280;2862;52.560;13.566;2024-01-27T19:19:09;102581.31;;;5.17;100.00
5679;BME280;2862;52.560;13.566;2024-01-27T19:29:12;102575.16;;;5.15;100.00
5679;BME280;2862;52.560;13.566;2024-01-27T19:39:16;102596.69;;;5.06;100.00
5679;BME280;2862;52.560;13.566;2024-01-27T19:49:19;102597.72;;;5.00;100.00
5679;BME280;2862;52.560;13.566;2024-01-27T19:59:25;102589.03;;;4.95;100.00
5679;BME280;2862;52.560;13.566;2024-01-27T20:09:28;102584.84;;;4.88;100.00
5679;BME280;2862;52.560;13.566;2024-01-27T20:19:33;102592.91;;;4.84;100.00
5679;BME280;2862;52.560;13.566;2024-01-27T20:29:36;102604.69;;;4.73;100.00
5679;BME280;2862;52.560;13.566;2024-01-27T20:39:40;102619.69;;;4.74;100.00
5679;BME280;2862;52.560;13.566;2024-01-27T20:49:45;102620.69;;;4.70;100.00
5679;BME280;2862;52.560;13.566;2024-01-27T20:59:50;102624.34;;;4.66;100.00
5679;BME280;2862;52.560;13.566;2024-01-27T21:09:53;102639.38;;;4.66;100.00
5679;BME280;2862;52.560;13.566;2024-01-27T21:19:58;102642.72;;;4.72;100.00
5679;BME280;2862;52.560;13.566;2024-01-27T21:30:01;102657.94;;;4.64;100.00
5679;BME280;2862;52.560;13.566;2024-01-27T21:40:07;102649.38;;;4.55;100.00
5679;BME280;2862;52.560;13.566;2024-01-27T21:50:13;102658.91;;;4.62;100.00
5679;BME280;2862;52.560;13.566;2024-01-27T22:00:18;102657.94;;;4.64;100.00
5679;BME280;2862;52.560;13.566;2024-01-27T22:10:21;102670.72;;;4.81;100.00
5679;BME280;2862;52.560;13.566;2024-01-27T22:20:28;102667.00;;;4.56;100.00
5679;BME280;2862;52.560;13.566;2024-01-27T22:30:31;102677.06;;;4.43;100.00
5679;BME280;2862;52.560;13.566;2024-01-27T22:40:36;102678.97;;;4.38;100.00
5679;BME280;2862;52.560;13.566;2024-01-27T22:50:39;102677.56;;;4.23;100.00
5679;BME280;2862;52.560;13.566;2024-01-27T23:00:44;102681.34;;;4.13;100.00
5679;BME280;2862;52.560;13.566;2024-01-27T23:10:49;102669.78;;;4.17;100.00
5679;BME280;2862;52.560;13.566;2024-01-27T23:20:53;102676.09;;;4.11;100.00
5679;BME280;2862;52.560;13.566;2024-01-27T23:30:56;102668.50;;;3.97;100.00
5679;BME280;2862;52.560;13.566;2024-01-27T23:41:01;102670.31;;;3.95;100.00
5679;BME280;2862;52.560;13.566;2024-01-27T23:51:05;102665.00;;;3.95;100.00
